createdAt,value
2018-10-11T00:01:37.191Z,96300.58
2018-10-11T00:04:05.592Z,96297.40
2018-10-11T00:06:33.954Z,96290.55
2018-10-11T00:09:02.314Z,96295.88
2018-10-11T00:11:30.703Z,96286.75
2018-10-11T00:13:59.094Z,96287.16
2018-10-11T00:16:27.343Z,96284.98
2018-10-11T00:18:55.707Z,96281.83
2018-10-11T00:21:24.050Z,96275.36
2018-10-11T00:23:52.494Z,96281.26
2018-10-11T00:26:20.883Z,96275.09
2018-10-11T00:28:49.245Z,96272.89
2018-10-11T00:31:17.824Z,96265.80
2018-10-11T00:33:46.097Z,96274.31
2018-10-11T00:36:14.717Z,96275.94
2018-10-11T00:38:43.061Z,96279.30
2018-10-11T00:41:11.541Z,96280.34
2018-10-11T00:43:40.347Z,96279.20
2018-10-11T00:46:08.803Z,96273.25
2018-10-11T00:48:37.135Z,96264.80
2018-10-11T00:51:05.497Z,96261.13
2018-10-11T00:53:33.913Z,96258.71
2018-10-11T00:56:02.311Z,96264.98
2018-10-11T00:58:30.765Z,96260.39
2018-10-11T01:00:59.075Z,96251.41
2018-10-11T01:03:27.457Z,96245.05
2018-10-11T01:05:55.879Z,96250.80
2018-10-11T01:08:24.196Z,96250.09
2018-10-11T01:10:52.621Z,96250.85
2018-10-11T01:13:21.021Z,96254.86
2018-10-11T01:15:49.291Z,96249.64
2018-10-11T01:18:17.931Z,96249.77
2018-10-11T01:20:46.638Z,96246.78
2018-10-11T01:23:15.000Z,96233.98
2018-10-11T01:25:43.407Z,96240.64
2018-10-11T01:28:11.797Z,96229.80
2018-10-11T01:30:44.281Z,96236.75
2018-10-11T01:33:12.623Z,96247.11
2018-10-11T01:35:41.065Z,96242.36
2018-10-11T01:38:09.539Z,96239.97
2018-10-11T01:40:37.980Z,96234.73
2018-10-11T01:43:06.961Z,96240.47
2018-10-11T01:45:35.819Z,96240.47
2018-10-11T01:48:04.218Z,96237.90
2018-10-11T01:50:32.749Z,96230.67
2018-10-11T01:53:01.175Z,96227.58
2018-10-11T01:55:30.037Z,96224.28
2018-10-11T01:57:59.466Z,96226.19
2018-10-11T02:00:27.982Z,96225.95
2018-10-11T02:02:58.665Z,96225.41
2018-10-11T02:05:27.705Z,96225.81
2018-10-11T02:07:57.011Z,96228.34
2018-10-11T02:10:26.141Z,96230.97
2018-10-11T02:12:54.518Z,96228.05
2018-10-11T02:15:22.823Z,96224.96
2018-10-11T02:17:51.882Z,96230.95
2018-10-11T02:20:20.253Z,96226.59
2018-10-11T02:22:48.588Z,96228.19
2018-10-11T02:25:16.963Z,96219.95
2018-10-11T02:27:46.289Z,96224.34
2018-10-11T02:30:14.743Z,96221.36
2018-10-11T02:32:43.507Z,96215.11
2018-10-11T02:35:12.594Z,96216.62
2018-10-11T02:37:41.551Z,96210.80
2018-10-11T02:40:10.000Z,96209.80
2018-10-11T02:42:38.488Z,96212.64
2018-10-11T02:45:07.517Z,96209.66
2018-10-11T02:47:35.805Z,96213.86
2018-10-11T02:50:04.326Z,96212.20
2018-10-11T02:52:32.694Z,96215.67
2018-10-11T02:55:01.318Z,96215.67
2018-10-11T02:57:40.918Z,96211.56
2018-10-11T03:00:09.654Z,96213.90
2018-10-11T03:02:39.158Z,96216.70
2018-10-11T03:05:12.882Z,96209.46
2018-10-11T03:07:41.230Z,96212.87
2018-10-11T03:10:09.742Z,96210.64
2018-10-11T03:12:38.378Z,96214.34
2018-10-11T03:15:07.142Z,96221.69
2018-10-11T03:17:35.494Z,96218.52
2018-10-11T03:20:04.074Z,96218.00
2018-10-11T03:22:32.695Z,96218.84
2018-10-11T03:25:00.978Z,96218.33
2018-10-11T03:27:29.550Z,96213.52
2018-10-11T03:29:57.928Z,96214.52
2018-10-11T03:32:26.225Z,96207.88
2018-10-11T03:34:54.930Z,96220.66
2018-10-11T03:37:23.287Z,96217.52
2018-10-11T03:39:51.658Z,96216.04
2018-10-11T03:42:20.054Z,96213.56
2018-10-11T03:44:48.382Z,96214.27
2018-10-11T03:47:16.799Z,96213.90
2018-10-11T03:49:45.200Z,96219.29
2018-10-11T03:52:13.539Z,96215.38
2018-10-11T03:54:42.214Z,96214.92
2018-10-11T03:57:10.686Z,96209.83
2018-10-11T03:59:39.066Z,96209.50
2018-10-11T04:02:07.495Z,96205.69
2018-10-11T04:04:35.944Z,96213.37
2018-10-11T04:07:04.354Z,96203.03
2018-10-11T04:09:32.727Z,96198.23
2018-10-11T04:12:01.304Z,96206.72
2018-10-11T04:14:29.695Z,96201.41
2018-10-11T04:16:58.477Z,96212.97
2018-10-11T04:19:26.870Z,96209.61
2018-10-11T04:21:56.010Z,96214.73
2018-10-11T04:24:25.358Z,96203.11
2018-10-11T04:26:53.754Z,96206.17
2018-10-11T04:29:22.135Z,96205.99
2018-10-11T04:31:50.470Z,96207.14
2018-10-11T04:34:18.882Z,96208.80
2018-10-11T04:36:47.217Z,96209.17
2018-10-11T04:39:15.494Z,96215.70
2018-10-11T04:41:47.082Z,96205.25
2018-10-11T04:44:15.377Z,96208.61
2018-10-11T04:46:43.703Z,96209.61
2018-10-11T04:49:12.481Z,96211.45
2018-10-11T04:51:41.458Z,96213.81
2018-10-11T04:54:09.961Z,96218.17
2018-10-11T04:56:38.300Z,96218.05
2018-10-11T04:59:07.090Z,96218.05
2018-10-11T05:01:35.423Z,96216.21
2018-10-11T05:04:03.769Z,96213.04
2018-10-11T05:06:32.084Z,96209.38
2018-10-11T05:09:00.631Z,96210.70
2018-10-11T05:11:28.993Z,96211.01
2018-10-11T05:13:58.487Z,96215.52
2018-10-11T05:16:26.989Z,96222.67
2018-10-11T05:18:57.426Z,96222.34
2018-10-11T05:21:26.027Z,96215.18
2018-10-11T05:23:54.281Z,96214.06
2018-10-11T05:26:22.753Z,96227.55
2018-10-11T05:28:51.073Z,96226.91
2018-10-11T05:31:19.482Z,96225.65
2018-10-11T05:33:48.354Z,96222.36
2018-10-11T05:36:16.696Z,96213.42
2018-10-11T05:38:45.278Z,96212.91
2018-10-11T05:41:14.083Z,96213.76
2018-10-11T05:43:42.483Z,96220.70
2018-10-11T05:46:22.585Z,96222.99
2018-10-11T05:48:51.518Z,96224.44
2018-10-11T05:51:20.768Z,96233.16
2018-10-11T05:53:50.020Z,96236.27
2018-10-11T05:56:20.056Z,96237.22
2018-10-11T05:58:48.750Z,96230.06
2018-10-11T06:01:17.180Z,96219.69
2018-10-11T06:03:45.786Z,96213.27
2018-10-11T06:06:14.247Z,96225.68
2018-10-11T06:08:42.950Z,96220.69
2018-10-11T06:11:11.801Z,96228.86
2018-10-11T06:13:40.249Z,96220.80
2018-10-11T06:16:08.607Z,96220.58
2018-10-11T06:18:37.338Z,96221.97
2018-10-11T06:21:05.947Z,96223.16
2018-10-11T06:23:34.378Z,96227.29
2018-10-11T06:26:02.667Z,96220.24
2018-10-11T06:28:31.131Z,96216.52
2018-10-11T06:30:59.766Z,96205.92
2018-10-11T06:33:28.185Z,96202.81
2018-10-11T06:35:56.973Z,96204.95
2018-10-11T06:38:25.503Z,96212.08
2018-10-11T06:40:53.836Z,96224.33
2018-10-11T06:43:22.202Z,96222.28
2018-10-11T06:45:50.835Z,96228.39
2018-10-11T06:48:19.230Z,96222.04
2018-10-11T06:50:47.760Z,96224.63
2018-10-11T06:53:16.167Z,96224.08
2018-10-11T06:55:44.467Z,96225.18
2018-10-11T06:58:12.910Z,96227.05
2018-10-11T07:00:41.348Z,96225.96
2018-10-11T07:03:09.718Z,96222.33
2018-10-11T07:05:38.158Z,96221.75
2018-10-11T07:08:06.630Z,96218.17
2018-10-11T07:10:35.040Z,96217.25
2018-10-11T07:13:03.349Z,96214.83
2018-10-11T07:15:31.710Z,96207.55
2018-10-11T07:18:00.133Z,96200.07
2018-10-11T07:20:28.565Z,96207.23
2018-10-11T07:22:57.034Z,96215.95
2018-10-11T07:25:25.448Z,96218.51
2018-10-11T07:27:54.006Z,96220.31
2018-10-11T07:30:22.690Z,96216.28
2018-10-11T07:32:51.149Z,96211.63
2018-10-11T07:35:19.867Z,96217.17
2018-10-11T07:37:48.055Z,96218.87
2018-10-11T07:40:16.430Z,96217.92
2018-10-11T07:42:46.171Z,96215.61
2018-10-11T07:45:14.531Z,96204.24
2018-10-11T07:47:42.797Z,96206.66
2018-10-11T07:50:11.187Z,96201.65
2018-10-11T07:52:39.531Z,96208.39
2018-10-11T07:55:08.107Z,96215.94
2018-10-11T07:57:36.443Z,96207.56
2018-10-11T08:00:04.978Z,96214.20
2018-10-11T08:02:33.448Z,96204.06
2018-10-11T08:05:01.770Z,96202.79
2018-10-11T08:07:30.335Z,96206.21
2018-10-11T08:09:58.591Z,96210.71
2018-10-11T08:12:26.983Z,96201.66
2018-10-11T08:14:55.431Z,96197.66
2018-10-11T08:17:23.989Z,96199.31
2018-10-11T08:19:52.303Z,96209.80
2018-10-11T08:22:20.562Z,96198.28
2018-10-11T08:24:49.083Z,96197.98
2018-10-11T08:27:17.419Z,96194.03
2018-10-11T08:29:46.042Z,96195.47
2018-10-11T08:32:14.499Z,96209.68
2018-10-11T08:34:42.786Z,96184.80
2018-10-11T08:37:11.488Z,96192.67
2018-10-11T08:39:39.862Z,96191.38
2018-10-11T08:42:08.546Z,96188.45
2018-10-11T08:44:37.279Z,96188.17
2018-10-11T08:47:05.622Z,96188.73
2018-10-11T08:49:34.062Z,96185.66
2018-10-11T08:52:02.382Z,96181.33
2018-10-11T08:54:36.062Z,96170.55
2018-10-11T08:57:04.423Z,96180.53
2018-10-11T08:59:32.753Z,96175.73
2018-10-11T09:02:01.202Z,96175.15
2018-10-11T09:04:29.518Z,96180.54
2018-10-11T09:06:57.867Z,96197.92
2018-10-11T09:09:26.269Z,96179.38
2018-10-11T09:11:54.793Z,96172.36
2018-10-11T09:14:23.232Z,96180.92
2018-10-11T09:16:51.546Z,96179.50
2018-10-11T09:19:19.942Z,96179.70
2018-10-11T09:21:48.548Z,96173.19
2018-10-11T09:24:17.126Z,96167.68
2018-10-11T09:26:45.326Z,96177.00
2018-10-11T09:29:13.922Z,96170.20
2018-10-11T09:31:42.304Z,96165.50
2018-10-11T09:34:10.850Z,96171.52
2018-10-11T09:36:39.596Z,96164.08
2018-10-11T09:39:09.194Z,96160.37
2018-10-11T09:41:38.443Z,96167.80
2018-10-11T09:44:07.326Z,96169.75
2018-10-11T09:46:35.792Z,96168.20
2018-10-11T09:49:04.662Z,96175.59
2018-10-11T09:51:32.985Z,96174.37
2018-10-11T09:54:01.346Z,96168.02
2018-10-11T09:57:41.674Z,96171.06
2018-10-11T10:00:16.413Z,96171.84
2018-10-11T10:02:45.787Z,96174.13
2018-10-11T10:05:14.074Z,96167.25
2018-10-11T10:07:42.590Z,96177.03
2018-10-11T10:10:11.015Z,96171.98
2018-10-11T10:12:39.365Z,96179.61
2018-10-11T10:15:07.805Z,96173.52
2018-10-11T10:17:36.714Z,96168.19
2018-10-11T10:20:05.327Z,96164.82
2018-10-11T10:22:33.868Z,96168.45
2018-10-11T10:25:02.375Z,96177.98
2018-10-11T10:27:30.861Z,96173.21
2018-10-11T10:29:59.134Z,96159.24
2018-10-11T10:32:27.532Z,96169.58
2018-10-11T10:34:56.819Z,96168.32
2018-10-11T10:37:25.239Z,96163.05
2018-10-11T10:39:53.634Z,96164.42
2018-10-11T10:42:21.974Z,96160.72
2018-10-11T10:44:50.342Z,96171.84
2018-10-11T10:47:18.803Z,96160.61
2018-10-11T10:49:47.246Z,96163.38
2018-10-11T10:52:15.565Z,96157.77
2018-10-11T10:54:43.981Z,96154.59
2018-10-11T10:57:12.929Z,96155.19
2018-10-11T10:59:41.317Z,96151.73
2018-10-11T11:02:09.803Z,96147.98
2018-10-11T11:04:38.142Z,96150.48
2018-10-11T11:07:06.587Z,96149.72
2018-10-11T11:09:34.946Z,96150.89
2018-10-11T11:12:03.502Z,96149.30
2018-10-11T11:14:31.915Z,96156.09
2018-10-11T11:17:00.311Z,96146.95
2018-10-11T11:19:28.723Z,96146.17
2018-10-11T11:21:57.031Z,96149.16
2018-10-11T11:24:25.435Z,96147.83
2018-10-11T11:26:53.783Z,96144.09
2018-10-11T11:29:22.157Z,96140.62
2018-10-11T11:31:50.459Z,96145.51
2018-10-11T11:34:18.805Z,96131.17
2018-10-11T11:36:47.183Z,96130.34
2018-10-11T11:39:15.707Z,96134.97
2018-10-11T11:41:44.095Z,96135.52
2018-10-11T11:44:12.431Z,96129.30
2018-10-11T11:46:40.910Z,96133.91
2018-10-11T11:49:09.193Z,96127.64
2018-10-11T11:51:37.644Z,96133.11
2018-10-11T11:54:10.243Z,96134.47
2018-10-11T11:56:38.615Z,96125.50
2018-10-11T11:59:07.052Z,96128.21
2018-10-11T12:01:35.710Z,96130.90
2018-10-11T12:04:04.128Z,96122.49
2018-10-11T12:06:32.423Z,96136.86
2018-10-11T12:09:09.911Z,96129.78
2018-10-11T12:11:38.218Z,96130.05
2018-10-11T12:14:07.171Z,96129.20
2018-10-11T12:16:36.066Z,96130.30
2018-10-11T12:19:04.351Z,96126.47
2018-10-11T12:21:32.870Z,96121.09
2018-10-11T12:24:01.442Z,96127.03
2018-10-11T12:26:29.725Z,96125.67
2018-10-11T12:28:58.177Z,96119.93
2018-10-11T12:31:27.256Z,96120.70
2018-10-11T12:33:55.590Z,96120.16
2018-10-11T12:36:23.975Z,96116.37
2018-10-11T12:38:52.406Z,96122.33
2018-10-11T12:41:20.689Z,96118.48
2018-10-11T12:43:48.980Z,96117.39
2018-10-11T12:46:17.882Z,96118.73
2018-10-11T12:48:46.258Z,96119.23
2018-10-11T12:51:14.883Z,96116.00
2018-10-11T12:53:46.082Z,96118.13
2018-10-11T12:56:11.926Z,96115.95
2018-10-11T12:58:40.281Z,96112.11
2018-10-11T13:01:08.642Z,96117.52
2018-10-11T13:03:37.033Z,96110.73
2018-10-11T13:06:05.407Z,96106.91
2018-10-11T13:08:33.769Z,96106.34
2018-10-11T13:11:02.166Z,96106.86
2018-10-11T13:13:30.526Z,96107.94
2018-10-11T13:16:02.839Z,96106.55
2018-10-11T13:18:28.061Z,96109.80
2018-10-11T13:20:56.397Z,96104.09
2018-10-11T13:23:24.837Z,96106.78
2018-10-11T13:25:53.337Z,96102.16
2018-10-11T13:28:21.923Z,96108.92
2018-10-11T13:30:50.618Z,96108.09
2018-10-11T13:33:18.904Z,96101.57
2018-10-11T13:35:47.365Z,96102.38
2018-10-11T13:38:15.822Z,96103.20
2018-10-11T13:40:44.237Z,96096.38
2018-10-11T13:43:12.535Z,96101.82
2018-10-11T13:45:40.858Z,96105.62
2018-10-11T13:48:09.288Z,96103.67
2018-10-11T13:50:37.877Z,96102.56
2018-10-11T13:53:08.095Z,96109.36
2018-10-11T13:55:36.623Z,96108.55
2018-10-11T13:58:05.110Z,96108.30
2018-10-11T14:00:33.820Z,96108.59
2018-10-11T14:03:15.255Z,96114.55
2018-10-11T14:05:54.972Z,96113.19
2018-10-11T14:08:23.625Z,96112.36
2018-10-11T14:10:52.030Z,96112.36
2018-10-11T14:13:20.779Z,96110.47
2018-10-11T14:15:48.802Z,96113.71
2018-10-11T14:18:17.142Z,96107.47
2018-10-11T14:20:45.581Z,96107.50
2018-10-11T14:23:13.884Z,96108.59
2018-10-11T14:25:42.202Z,96110.75
2018-10-11T14:28:10.659Z,96104.78
2018-10-11T14:30:39.033Z,96105.31
2018-10-11T14:33:07.413Z,96104.78
2018-10-11T14:35:35.885Z,96106.45
2018-10-11T14:38:04.318Z,96106.45
2018-10-11T14:40:32.762Z,96110.83
2018-10-11T14:43:01.205Z,96107.34
2018-10-11T14:45:29.639Z,96100.02
2018-10-11T14:47:57.999Z,96120.45
2018-10-11T14:50:26.339Z,96112.30
2018-10-11T14:52:54.667Z,96108.27
2018-10-11T14:55:23.045Z,96114.00
2018-10-11T14:57:51.501Z,96117.55
2018-10-11T15:00:20.176Z,96120.02
2018-10-11T15:02:48.501Z,96118.98
2018-10-11T15:05:16.930Z,96117.62
2018-10-11T15:07:45.218Z,96118.21
2018-10-11T15:10:13.757Z,96121.78
2018-10-11T15:12:42.094Z,96126.18
2018-10-11T15:15:10.586Z,96119.98
2018-10-11T15:17:38.983Z,96128.14
2018-10-11T15:20:07.294Z,96131.94
2018-10-11T15:22:35.720Z,96138.72
2018-10-11T15:25:04.202Z,96131.70
2018-10-11T15:27:32.859Z,96129.27
2018-10-11T15:30:01.266Z,96141.22
2018-10-11T15:32:29.747Z,96138.52
2018-10-11T15:34:58.529Z,96142.32
2018-10-11T15:37:26.785Z,96146.65
2018-10-11T15:39:55.174Z,96141.78
2018-10-11T15:42:23.662Z,96137.43
2018-10-11T15:44:51.990Z,96144.20
2018-10-11T15:47:20.302Z,96137.69
2018-10-11T15:49:48.980Z,96141.47
2018-10-11T15:52:17.528Z,96138.48
2018-10-11T15:54:45.842Z,96140.09
2018-10-11T15:57:14.551Z,96147.09
2018-10-11T15:59:43.346Z,96149.16
2018-10-11T16:02:11.787Z,96152.91
2018-10-11T16:04:40.099Z,96152.84
2018-10-11T16:07:08.530Z,96155.50
2018-10-11T16:09:36.855Z,96157.29
2018-10-11T16:12:05.377Z,96155.05
2018-10-11T16:14:33.706Z,96159.59
2018-10-11T16:17:02.078Z,96160.05
2018-10-11T16:19:30.544Z,96158.38
2018-10-11T16:21:58.850Z,96167.73
2018-10-11T16:24:27.214Z,96167.42
2018-10-11T16:26:55.649Z,96168.45
2018-10-11T16:29:23.955Z,96169.50
2018-10-11T16:31:52.417Z,96165.65
2018-10-11T16:34:20.733Z,96165.33
2018-10-11T16:36:49.077Z,96162.57
2018-10-11T16:39:17.590Z,96175.45
2018-10-11T16:41:45.898Z,96173.52
2018-10-11T16:44:14.433Z,96180.20
2018-10-11T16:46:42.823Z,96183.37
2018-10-11T16:49:11.122Z,96191.72
2018-10-11T16:51:39.657Z,96191.11
2018-10-11T16:54:08.546Z,96195.30
2018-10-11T16:56:37.007Z,96201.62
2018-10-11T16:59:05.345Z,96194.97
2018-10-11T17:01:33.812Z,96202.27
2018-10-11T17:04:02.862Z,96211.20
2018-10-11T17:06:31.219Z,96211.15
2018-10-11T17:08:59.597Z,96212.95
2018-10-11T17:11:28.156Z,96226.16
2018-10-11T17:13:56.530Z,96230.00
2018-10-11T17:16:24.905Z,96228.91
2018-10-11T17:18:53.314Z,96230.69
2018-10-11T17:21:21.701Z,96232.47
2018-10-11T17:23:50.038Z,96235.06
2018-10-11T17:26:18.636Z,96235.19
2018-10-11T17:28:46.950Z,96240.80
2018-10-11T17:31:15.374Z,96234.63
2018-10-11T17:33:43.710Z,96238.78
2018-10-11T17:36:12.158Z,96245.10
2018-10-11T17:38:40.458Z,96241.97
2018-10-11T17:41:08.845Z,96244.05
2018-10-11T17:43:37.176Z,96243.23
2018-10-11T17:46:05.605Z,96248.99
2018-10-11T17:48:33.926Z,96242.86
2018-10-11T17:51:02.274Z,96244.73
2018-10-11T17:53:30.674Z,96244.56
2018-10-11T17:55:59.382Z,96247.12
2018-10-11T17:58:27.858Z,96251.05
2018-10-11T18:00:56.310Z,96254.31
2018-10-11T18:03:24.828Z,96258.56
2018-10-11T18:05:53.086Z,96262.82
2018-10-11T18:08:21.475Z,96260.84
2018-10-11T18:10:49.877Z,96263.03
2018-10-11T18:13:18.167Z,96259.48
2018-10-11T18:15:46.502Z,96263.20
2018-10-11T18:18:15.402Z,96260.82
2018-10-11T18:20:43.756Z,96257.02
2018-10-11T18:23:12.216Z,96262.92
2018-10-11T18:25:40.584Z,96265.30
2018-10-11T18:28:08.909Z,96263.53
2018-10-11T18:30:37.274Z,96263.39
2018-10-11T18:33:05.715Z,96262.80
2018-10-11T18:35:34.304Z,96268.28
2018-10-11T18:38:02.590Z,96268.66
2018-10-11T18:40:30.907Z,96273.77
2018-10-11T18:42:59.346Z,96279.80
2018-10-11T18:45:27.675Z,96275.34
2018-10-11T18:47:56.069Z,96282.58
2018-10-11T18:50:24.407Z,96283.86
2018-10-11T18:52:52.793Z,96281.40
2018-10-11T18:55:21.885Z,96279.03
2018-10-11T18:57:50.608Z,96287.66
2018-10-11T19:00:18.863Z,96296.37
2018-10-11T19:02:47.249Z,96303.23
2018-10-11T19:05:15.680Z,96301.62
2018-10-11T19:07:44.106Z,96299.00
2018-10-11T19:10:12.733Z,96306.20
2018-10-11T19:12:41.057Z,96314.66
2018-10-11T19:15:09.489Z,96309.02
2018-10-11T19:17:37.923Z,96304.16
2018-10-11T19:20:06.295Z,96309.38
2018-10-11T19:22:34.996Z,96314.94
2018-10-11T19:25:03.446Z,96315.33
2018-10-11T19:27:31.904Z,96315.86
2018-10-11T19:30:00.198Z,96316.28
2018-10-11T19:32:28.812Z,96314.94
2018-10-11T19:34:57.110Z,96317.45
2018-10-11T19:37:25.440Z,96319.98
2018-10-11T19:39:54.024Z,96321.74
2018-10-11T19:42:22.406Z,96319.27
2018-10-11T19:44:50.746Z,96318.25
2018-10-11T19:47:19.187Z,96322.69
2018-10-11T19:49:47.684Z,96324.77
2018-10-11T19:52:16.086Z,96327.66
2018-10-11T19:54:44.762Z,96331.45
2018-10-11T19:57:13.186Z,96335.67
2018-10-11T19:59:41.558Z,96331.45
2018-10-11T20:02:10.020Z,96331.66
2018-10-11T20:04:38.433Z,96339.33
2018-10-11T20:07:07.034Z,96346.54
2018-10-11T20:09:35.361Z,96339.82
2018-10-11T20:12:03.850Z,96348.30
2018-10-11T20:14:32.229Z,96347.56
2018-10-11T20:17:00.673Z,96354.91
2018-10-11T20:19:28.987Z,96354.30
2018-10-11T20:21:57.332Z,96356.38
2018-10-11T20:24:26.033Z,96361.67
2018-10-11T20:26:54.331Z,96361.44
2018-10-11T20:29:22.735Z,96359.38
2018-10-11T20:31:51.079Z,96366.59
2018-10-11T20:34:19.752Z,96375.25
2018-10-11T20:36:48.058Z,96367.23
2018-10-11T20:39:16.590Z,96376.59
2018-10-11T20:41:44.947Z,96377.31
2018-10-11T20:44:13.259Z,96373.83
2018-10-11T20:46:41.660Z,96371.84
2018-10-11T20:49:10.331Z,96375.25
2018-10-11T20:51:39.074Z,96380.89
2018-10-11T20:54:07.488Z,96377.72
2018-10-11T20:56:37.030Z,96386.56
2018-10-11T20:59:05.409Z,96379.44
2018-10-11T21:01:34.489Z,96389.84
2018-10-11T21:04:02.997Z,96390.77
2018-10-11T21:06:31.398Z,96398.09
2018-10-11T21:08:59.758Z,96401.09
2018-10-11T21:11:28.131Z,96396.14
2018-10-11T21:13:56.587Z,96398.53
2018-10-11T21:16:24.938Z,96401.91
2018-10-11T21:18:53.261Z,96407.55
2018-10-11T21:21:21.641Z,96404.46
2018-10-11T21:23:50.942Z,96404.46
2018-10-11T21:26:19.362Z,96410.83
2018-10-11T21:28:47.709Z,96407.11
2018-10-11T21:31:16.282Z,96401.44
2018-10-11T21:33:44.767Z,96410.27
2018-10-11T21:36:13.141Z,96412.30
2018-10-11T21:38:41.722Z,96416.02
2018-10-11T21:41:10.200Z,96413.55
2018-10-11T21:43:38.605Z,96413.03
2018-10-11T21:46:07.125Z,96414.57
2018-10-11T21:48:35.512Z,96413.03
2018-10-11T21:51:03.786Z,96412.02
2018-10-11T21:53:32.209Z,96407.68
2018-10-11T21:56:00.555Z,96406.55
2018-10-11T21:58:28.941Z,96406.46
2018-10-11T22:01:02.463Z,96405.16
2018-10-11T22:03:30.894Z,96412.80
2018-10-11T22:05:59.214Z,96404.98
2018-10-11T22:08:27.660Z,96413.64
2018-10-11T22:10:56.048Z,96412.09
2018-10-11T22:13:24.723Z,96418.77
2018-10-11T22:15:53.136Z,96417.26
2018-10-11T22:18:21.458Z,96418.80
2018-10-11T22:20:49.909Z,96416.45
2018-10-11T22:23:18.213Z,96414.59
2018-10-11T22:25:46.529Z,96416.63
2018-10-11T22:28:14.905Z,96421.13
2018-10-11T22:30:43.425Z,96416.31
2018-10-11T22:33:11.717Z,96414.13
2018-10-11T22:35:40.235Z,96414.98
2018-10-11T22:38:08.646Z,96416.31
2018-10-11T22:40:36.957Z,96424.34
2018-10-11T22:43:05.382Z,96421.95
2018-10-11T22:45:33.806Z,96426.37
2018-10-11T22:48:02.088Z,96426.59
2018-10-11T22:50:30.413Z,96428.64
2018-10-11T22:52:58.807Z,96426.28
2018-10-11T22:55:30.585Z,96430.39
2018-10-11T22:57:59.671Z,96431.92
2018-10-11T23:00:28.749Z,96432.13
2018-10-11T23:02:57.073Z,96428.09
2018-10-11T23:05:25.629Z,96425.63
2018-10-11T23:07:53.949Z,96439.09
2018-10-11T23:10:22.723Z,96451.75
2018-10-11T23:12:51.059Z,96463.00
2018-10-11T23:15:19.531Z,96452.93
2018-10-11T23:17:48.025Z,96462.69
2018-10-11T23:20:16.553Z,96461.16
2018-10-11T23:22:44.891Z,96464.44
2018-10-11T23:25:13.242Z,96471.20
2018-10-11T23:27:42.541Z,96469.69
2018-10-11T23:30:12.082Z,96459.81
2018-10-11T23:32:41.084Z,96458.45
2018-10-11T23:35:10.246Z,96473.57
2018-10-11T23:37:38.754Z,96482.84
2018-10-11T23:40:07.500Z,96479.27
2018-10-11T23:42:35.838Z,96473.19
2018-10-11T23:45:04.293Z,96478.31
2018-10-11T23:47:32.729Z,96475.86
2018-10-11T23:50:01.138Z,96475.74
2018-10-11T23:52:29.500Z,96470.52
2018-10-11T23:54:57.988Z,96476.17
2018-10-11T23:57:26.787Z,96479.45
2018-10-11T23:59:55.192Z,96484.50
